Time;durP1;ratioP1;P1;durP2;ratioP2;P2;SDS_P1;SDS_P2;PMS_P1;PMS_P2;Temp;Humidity;BMP_temperature;BMP_pressure;BME280_temperature;BME280_humidity;BME280_pressure;Samples;Min_cycle;Max_cycle;Signal;HPM_P1;HPM_P2
2023/09/10 00:05:00;;;;;;;75.40;47.78;;;;;;;16.51;100.00;101742.00;10435042;28;20056;-67
2023/09/10 00:10:00;;;;;;;71.50;44.75;;;;;;;16.49;100.00;101740.63;10436419;28;20033;-67
2023/09/10 00:15:01;;;;;;;80.13;49.33;;;;;;;16.44;100.00;101747.00;10434818;28;20044;-67
2023/09/10 00:20:01;;;;;;;85.28;50.33;;;;;;;16.42;100.00;101742.84;10440899;28;20037;-67
2023/09/10 00:25:02;;;;;;;81.85;49.75;;;;;;;16.24;100.00;101721.91;10413236;28;20037;-67
2023/09/10 00:30:03;;;;;;;81.43;49.25;;;;;;;16.31;100.00;101734.47;10439551;28;20087;-67
2023/09/10 00:35:04;;;;;;;84.50;50.92;;;;;;;16.27;100.00;101736.09;10432362;28;20045;-67
2023/09/10 00:40:05;;;;;;;80.78;49.40;;;;;;;16.25;100.00;101743.88;10439245;28;20555;-67
2023/09/10 00:45:06;;;;;;;78.00;49.75;;;;;;;16.10;100.00;101724.34;10416755;28;20128;-67
2023/09/10 00:50:09;;;;;;;81.75;50.50;;;;;;;16.11;100.00;101735.19;10416046;28;20053;-67
2023/09/10 00:55:10;;;;;;;79.78;50.13;;;;;;;16.13;100.00;101746.06;10433235;28;20040;-67
2023/09/10 01:00:12;;;;;;;78.20;49.60;;;;;;;16.05;100.00;101725.16;10435483;28;20038;-67
2023/09/10 01:05:16;;;;;;;94.15;55.95;;;;;;;16.07;100.00;101736.03;10418487;28;20041;-67
2023/09/10 01:10:16;;;;;;;81.95;53.28;;;;;;;16.05;100.00;101739.06;10436616;28;20050;-66
2023/09/10 01:15:34;;;;;;;92.03;55.22;;;;;;;15.99;100.00;101740.13;10435160;28;20052;-66
2023/09/10 01:20:48;;;;;;;87.55;54.10;;;;;;;15.94;100.00;101740.94;10431837;28;20501;-66
2023/09/10 01:25:49;;;;;;;80.65;51.55;;;;;;;15.95;100.00;101739.00;10440121;28;20044;-66
2023/09/10 01:30:49;;;;;;;88.47;53.88;;;;;;;15.96;100.00;101740.69;10444242;28;20513;-67
2023/09/10 01:36:02;;;;;;;86.45;56.22;;;;;;;15.94;100.00;101738.19;10443244;28;20053;-67
2023/09/10 01:41:04;;;;;;;90.97;55.38;;;;;;;15.92;100.00;101743.16;10442889;28;20524;-66
2023/09/10 01:46:05;;;;;;;89.18;52.53;;;;;;;15.94;100.00;101742.91;10441231;28;20044;-67
2023/09/10 01:51:05;;;;;;;91.90;55.72;;;;;;;15.94;100.00;101732.63;10441272;28;20044;-66
2023/09/10 01:56:06;;;;;;;81.53;49.63;;;;;;;15.90;100.00;101730.66;10441860;28;20068;-66
2023/09/10 02:01:06;;;;;;;79.18;46.20;;;;;;;15.81;100.00;101732.25;10443489;28;20052;-67
2023/09/10 02:06:07;;;;;;;77.80;49.35;;;;;;;15.72;100.00;101718.06;10443393;28;20115;-67
2023/09/10 02:11:07;;;;;;;73.85;47.90;;;;;;;15.76;100.00;101733.06;10440372;28;20044;-66
2023/09/10 02:16:08;;;;;;;71.35;48.17;;;;;;;15.72;100.00;101731.94;10443825;28;20033;-67
2023/09/10 02:21:09;;;;;;;74.40;45.60;;;;;;;15.67;100.00;101737.44;10438108;28;20046;-67
2023/09/10 02:26:10;;;;;;;70.68;44.45;;;;;;;15.62;100.00;101734.59;10443096;28;20444;-67
2023/09/10 02:31:10;;;;;;;76.78;47.97;;;;;;;15.60;100.00;101742.38;10441995;28;20029;-68
2023/09/10 02:36:11;;;;;;;80.70;48.70;;;;;;;15.59;100.00;101740.72;10436863;28;20493;-67
2023/09/10 02:41:11;;;;;;;74.18;46.92;;;;;;;15.58;100.00;101739.03;10446511;28;20050;-67
2023/09/10 02:46:12;;;;;;;77.65;49.20;;;;;;;15.57;100.00;101737.38;10434235;28;20068;-66
2023/09/10 02:51:12;;;;;;;81.78;50.92;;;;;;;15.53;100.00;101740.66;10435952;28;20043;-67
2023/09/10 02:56:13;;;;;;;79.72;52.72;;;;;;;15.51;100.00;101740.09;10418158;28;20034;-67
2023/09/10 03:01:13;;;;;;;81.68;51.25;;;;;;;15.46;100.00;101745.63;10441122;28;20037;-67
2023/09/10 03:06:13;;;;;;;78.97;52.10;;;;;;;15.41;100.00;101728.91;10439581;28;20405;-67
2023/09/10 03:11:14;;;;;;;77.95;53.95;;;;;;;15.46;100.00;101742.84;10438839;28;20048;-68
2023/09/10 03:16:14;;;;;;;78.18;52.08;;;;;;;15.42;100.00;101750.03;10421448;28;20071;-67
2023/09/10 03:21:15;;;;;;;71.18;48.97;;;;;;;15.40;100.00;101746.69;10439384;28;20316;-67
2023/09/10 03:26:15;;;;;;;68.40;47.20;;;;;;;15.34;100.00;101743.00;10439655;28;20444;-67
2023/09/10 03:31:16;;;;;;;68.63;47.47;;;;;;;15.31;100.00;101743.53;10435014;28;20493;-65
2023/09/10 03:36:16;;;;;;;66.72;45.35;;;;;;;15.26;100.00;101731.56;10442772;28;20052;-66
2023/09/10 03:41:17;;;;;;;69.05;44.58;;;;;;;15.21;100.00;101732.34;10416445;28;20033;-67
2023/09/10 03:46:17;;;;;;;75.95;48.35;;;;;;;15.18;100.00;101724.56;10435148;28;20037;-67
2023/09/10 03:51:18;;;;;;;86.13;53.28;;;;;;;15.18;100.00;101735.66;10439129;28;20040;-67
2023/09/10 03:56:18;;;;;;;83.93;51.13;;;;;;;14.97;100.00;101701.38;10434184;28;20050;-67
2023/09/10 04:01:18;;;;;;;81.25;52.83;;;;;;;15.07;100.00;101720.88;10439458;28;20041;-66
2023/09/10 04:06:19;;;;;;;86.82;55.33;;;;;;;15.17;100.00;101716.50;10435273;28;20037;-67
2023/09/10 04:11:19;;;;;;;89.50;56.70;;;;;;;15.17;100.00;101730.38;10436778;28;20060;-66
2023/09/10 04:16:20;;;;;;;75.57;50.55;;;;;;;15.13;100.00;101728.16;10431562;28;20036;-67
2023/09/10 04:21:20;;;;;;;81.18;51.20;;;;;;;15.08;100.00;101730.84;10435973;28;20037;-67
2023/09/10 04:26:21;;;;;;;73.78;48.95;;;;;;;15.05;100.00;101741.66;10436363;28;20798;-67
2023/09/10 04:31:21;;;;;;;73.22;47.20;;;;;;;15.00;100.00;101744.38;10438652;28;20040;-67
2023/09/10 04:36:22;;;;;;;70.78;46.80;;;;;;;14.94;100.00;101746.25;10434672;28;20038;-67
2023/09/10 04:41:22;;;;;;;69.05;46.35;;;;;;;14.90;100.00;101739.56;10438738;28;20068;-67
2023/09/10 04:46:23;;;;;;;81.40;51.88;;;;;;;14.90;100.00;101745.09;10431857;28;20643;-68
2023/09/10 04:51:23;;;;;;;91.82;55.00;;;;;;;14.93;100.00;101745.44;10438697;28;20033;-68
2023/09/10 04:56:23;;;;;;;87.03;54.30;;;;;;;14.86;100.00;101738.41;10431653;28;20037;-67
2023/09/10 05:01:24;;;;;;;92.95;57.30;;;;;;;14.93;100.00;101745.44;10437641;28;20503;-67
2023/09/10 05:06:24;;;;;;;89.55;56.90;;;;;;;15.00;100.00;101745.22;10433443;28;20037;-68
2023/09/10 05:11:25;;;;;;;87.15;54.83;;;;;;;15.03;100.00;101747.47;10431327;28;20089;-67
2023/09/10 05:16:25;;;;;;;79.38;52.80;;;;;;;15.07;100.00;101758.88;10417894;28;20049;-67
2023/09/10 05:21:26;;;;;;;74.65;49.83;;;;;;;15.05;100.00;101764.69;10433999;28;20072;-67
2023/09/10 05:26:26;;;;;;;77.88;51.72;;;;;;;14.95;100.00;101747.13;10435726;28;20390;-68
2023/09/10 05:31:27;;;;;;;77.57;51.92;;;;;;;14.99;100.00;101757.41;10436266;28;20469;-67
2023/09/10 05:36:27;;;;;;;84.10;56.22;;;;;;;15.02;100.00;101748.56;10433725;28;20033;-67
2023/09/10 05:41:28;;;;;;;78.32;53.20;;;;;;;15.20;100.00;101760.38;10435527;28;20049;-67
2023/09/10 05:46:28;;;;;;;83.60;55.10;;;;;;;15.00;100.00;101728.56;10432475;28;20041;-67
2023/09/10 05:51:29;;;;;;;77.95;52.60;;;;;;;15.33;100.00;101774.63;10437859;28;20048;-67
2023/09/10 05:56:29;;;;;;;74.28;49.90;;;;;;;15.43;100.00;101776.66;10431439;28;20033;-67
2023/09/10 06:01:30;;;;;;;83.70;54.63;;;;;;;15.52;100.00;101779.78;10433856;28;20047;-67
2023/09/10 06:06:30;;;;;;;85.20;55.40;;;;;;;15.63;100.00;101791.81;10442307;28;20060;-65
2023/09/10 06:11:31;;;;;;;87.22;56.85;;;;;;;15.77;100.00;101787.47;10445903;28;21009;-67
2023/09/10 06:16:31;;;;;;;92.93;58.78;;;;;;;16.00;100.00;101791.81;10439715;28;20045;-67
2023/09/10 06:21:32;;;;;;;90.82;58.15;;;;;;;16.28;100.00;101801.69;10443487;28;20036;-67
2023/09/10 06:26:32;;;;;;;88.18;58.85;;;;;;;16.53;100.00;101817.63;10441162;28;20045;-67
2023/09/10 06:31:33;;;;;;;84.68;56.10;;;;;;;16.78;100.00;101812.44;10423803;28;20041;-67
2023/09/10 06:36:33;;;;;;;83.82;55.13;;;;;;;17.04;100.00;101817.00;10439420;28;20071;-67
2023/09/10 06:41:34;;;;;;;79.45;52.78;;;;;;;17.29;100.00;101818.16;10437300;28;20513;-67
2023/09/10 06:46:34;;;;;;;68.45;48.53;;;;;;;17.33;100.00;101785.88;10440470;28;20039;-67
2023/09/10 06:51:35;;;;;;;67.65;46.53;;;;;;;17.80;100.00;101829.31;10437802;28;20034;-67
2023/09/10 06:56:35;;;;;;;64.97;45.58;;;;;;;18.03;100.00;101830.69;10426772;28;20037;-68
2023/09/10 07:01:37;;;;;;;62.70;45.38;;;;;;;18.10;100.00;101810.88;10422466;28;20049;-68
2023/09/10 07:06:37;;;;;;;63.95;44.42;;;;;;;18.45;100.00;101814.69;10429793;28;20484;-67
2023/09/10 07:11:38;;;;;;;61.40;41.15;;;;;;;18.54;100.00;101815.75;10436263;28;20076;-68
2023/09/10 07:16:38;;;;;;;54.45;39.53;;;;;;;18.80;100.00;101826.84;10419858;28;20045;-67
2023/09/10 07:21:39;;;;;;;56.75;38.45;;;;;;;19.00;100.00;101828.69;10429579;28;20111;-67
2023/09/10 07:26:39;;;;;;;54.13;39.42;;;;;;;19.18;100.00;101835.53;10457747;28;20123;-67
2023/09/10 07:31:40;;;;;;;53.78;36.60;;;;;;;19.41;100.00;101843.19;10423011;28;20041;-68
2023/09/10 07:36:40;;;;;;;49.13;36.60;;;;;;;19.63;100.00;101836.31;10419706;28;20034;-68
2023/09/10 07:41:41;;;;;;;46.10;35.90;;;;;;;19.82;100.00;101845.66;10427349;28;20041;-68
2023/09/10 07:46:41;;;;;;;48.38;36.47;;;;;;;19.93;100.00;101836.06;10425520;28;20548;-69
2023/09/10 07:51:42;;;;;;;38.30;31.45;;;;;;;20.11;100.00;101836.44;10415985;28;20041;-66
2023/09/10 07:56:45;;;;;;;36.75;29.98;;;;;;;20.25;100.00;101843.00;10426668;28;20100;-68
2023/09/10 08:01:45;;;;;;;41.92;30.58;;;;;;;20.42;100.00;101830.50;10427272;28;20059;-68
2023/09/10 08:06:46;;;;;;;44.70;32.22;;;;;;;20.58;100.00;101851.63;10440550;28;20059;-68
2023/09/10 08:11:46;;;;;;;41.95;31.73;;;;;;;20.72;100.00;101852.56;10464561;28;20064;-69
2023/09/10 08:16:47;;;;;;;39.67;29.80;;;;;;;20.86;100.00;101838.66;10440563;28;20047;-69
2023/09/10 08:21:48;;;;;;;41.53;29.48;;;;;;;21.01;100.00;101851.63;10433490;28;20041;-69
2023/09/10 08:26:48;;;;;;;32.58;26.13;;;;;;;21.24;100.00;101846.25;10424134;28;20128;-69
2023/09/10 08:31:49;;;;;;;30.13;23.00;;;;;;;21.36;100.00;101833.44;10422655;28;20486;-68
2023/09/10 08:36:49;;;;;;;30.42;24.48;;;;;;;21.67;100.00;101837.75;10417898;28;20044;-68
2023/09/10 08:42:12;;;;;;;28.75;21.65;;;;;;;21.97;100.00;101833.56;10418727;28;20040;-69
2023/09/10 08:47:13;;;;;;;24.65;19.83;;;;;;;22.23;100.00;101833.94;10431611;28;20034;-69
2023/09/10 08:52:13;;;;;;;22.70;17.83;;;;;;;22.51;100.00;101839.56;10437356;28;20037;-68
2023/09/10 08:57:14;;;;;;;24.45;19.42;;;;;;;22.69;100.00;101830.19;10432823;28;20068;-68
2023/09/10 09:02:14;;;;;;;23.70;17.60;;;;;;;22.93;100.00;101827.16;10431626;28;20481;-68
2023/09/10 09:07:15;;;;;;;22.17;17.45;;;;;;;23.15;100.00;101825.56;10467364;28;20041;-68
2023/09/10 09:12:15;;;;;;;23.33;17.77;;;;;;;23.46;100.00;101833.25;10433859;28;20037;-68
2023/09/10 09:17:16;;;;;;;24.25;18.65;;;;;;;23.66;100.00;101823.47;10434129;28;20554;-68
2023/09/10 09:22:17;;;;;;;19.45;16.23;;;;;;;23.89;100.00;101827.13;10432829;28;20045;-68
2023/09/10 09:27:18;;;;;;;19.77;15.95;;;;;;;24.16;100.00;101801.63;10420121;28;20060;-69
2023/09/10 09:32:18;;;;;;;29.00;17.65;;;;;;;24.44;100.00;101795.75;10436297;28;20033;-67
2023/09/10 09:37:19;;;;;;;18.17;14.30;;;;;;;24.63;100.00;101801.13;10433180;28;20053;-69
2023/09/10 09:42:22;;;;;;;23.85;17.27;;;;;;;24.71;100.00;101789.06;10435029;28;20041;-69
2023/09/10 09:47:23;;;;;;;18.17;14.90;;;;;;;24.90;100.00;101793.56;10445567;28;20063;-69
2023/09/10 09:52:24;;;;;;;20.38;15.05;;;;;;;25.05;100.00;101795.06;10439342;28;20091;-70
2023/09/10 09:57:24;;;;;;;16.90;14.05;;;;;;;25.25;100.00;101791.59;10437649;28;20042;-69
2023/09/10 10:02:24;;;;;;;20.83;16.48;;;;;;;25.54;100.00;101784.44;10446809;28;20037;-68
2023/09/10 10:07:26;;;;;;;15.60;12.63;;;;;;;25.81;100.00;101780.41;10439242;28;20037;-68
2023/09/10 10:12:27;;;;;;;21.75;15.65;;;;;;;26.01;100.00;101783.69;10435324;28;20096;-68
2023/09/10 10:17:28;;;;;;;19.90;16.00;;;;;;;26.08;100.00;101769.88;10440259;28;20033;-69
2023/09/10 10:22:28;;;;;;;21.52;14.68;;;;;;;26.25;100.00;101778.28;10422433;28;20045;-69
2023/09/10 10:27:29;;;;;;;19.10;16.02;;;;;;;26.26;100.00;101767.81;10441057;28;20067;-67
2023/09/10 10:32:34;;;;;;;17.58;13.48;;;;;;;26.52;100.00;101756.34;10424592;28;20049;-69
2023/09/10 10:37:56;;;;;;;22.42;15.95;;;;;;;26.70;100.00;101752.25;10439026;28;20037;-68
2023/09/10 10:43:12;;;;;;;20.00;14.02;;;;;;;26.93;100.00;101746.28;10440884;28;20096;-68
2023/09/10 10:48:19;;;;;;;18.35;15.18;;;;;;;26.90;100.00;101739.31;10450884;28;20034;-69
2023/09/10 10:53:21;;;;;;;16.65;12.85;;;;;;;27.08;100.00;101740.00;10436068;28;20041;-69
2023/09/10 10:58:25;;;;;;;18.40;12.98;;;;;;;27.29;100.00;101733.53;10443090;28;20044;-68
2023/09/10 11:03:26;;;;;;;13.07;11.05;;;;;;;27.49;100.00;101714.84;10436479;28;20132;-69
2023/09/10 11:08:27;;;;;;;14.75;10.93;;;;;;;27.66;100.00;101728.78;10438091;28;20100;-68
2023/09/10 11:13:27;;;;;;;13.32;10.63;;;;;;;28.02;100.00;101726.38;10437159;28;20029;-68
2023/09/10 11:18:37;;;;;;;14.07;11.07;;;;;;;28.38;100.00;101726.38;10439306;28;20048;-69
2023/09/10 11:23:58;;;;;;;27.98;13.02;;;;;;;28.36;100.00;101706.06;10438637;28;20050;-68
2023/09/10 11:28:59;;;;;;;11.50;10.30;;;;;;;28.54;100.00;101705.81;10416127;28;20034;-69
2023/09/10 11:34:15;;;;;;;10.25;9.25;;;;;;;28.84;100.00;101711.19;10432654;28;20091;-68
2023/09/10 11:39:16;;;;;;;13.40;10.25;;;;;;;29.02;100.00;101717.38;10427844;28;20042;-69
2023/09/10 11:44:17;;;;;;;12.82;8.73;;;;;;;29.18;100.00;101710.56;10420900;28;21004;-68
2023/09/10 11:49:17;;;;;;;12.23;9.73;;;;;;;29.50;100.00;101693.63;10443530;28;20037;-69
2023/09/10 11:54:18;;;;;;;13.00;8.95;;;;;;;29.97;100.00;101707.03;10432141;28;20078;-69
2023/09/10 11:59:23;;;;;;;10.70;7.65;;;;;;;30.38;100.00;101701.94;10413609;28;20064;-70
2023/09/10 12:04:31;;;;;;;15.45;9.52;;;;;;;30.95;100.00;101693.06;10431570;28;20096;-70
2023/09/10 12:09:31;;;;;;;9.13;7.47;;;;;;;31.68;100.00;101687.53;10433962;28;20101;-70
2023/09/10 12:14:32;;;;;;;10.55;7.90;;;;;;;32.10;100.00;101673.22;10441189;28;20033;-70
2023/09/10 12:19:33;;;;;;;12.13;7.60;;;;;;;32.60;100.00;101678.84;10434825;28;20041;-70
2023/09/10 12:24:33;;;;;;;9.48;7.60;;;;;;;33.21;96.35;101667.34;10439168;28;20037;-69
2023/09/10 12:29:34;;;;;;;9.05;6.72;;;;;;;33.45;95.16;101672.50;10433923;28;20041;-70
2023/09/10 12:34:34;;;;;;;11.93;7.28;;;;;;;33.71;93.65;101668.66;10436873;28;20419;-69
2023/09/10 12:39:35;;;;;;;13.32;8.05;;;;;;;33.61;89.19;101645.72;10429321;28;20097;-71
2023/09/10 12:44:39;;;;;;;11.63;7.95;;;;;;;33.58;91.05;101659.56;10437439;28;20034;-70
2023/09/10 12:49:39;;;;;;;12.27;6.73;;;;;;;33.40;89.49;101652.84;10432657;28;20052;-70
2023/09/10 12:54:40;;;;;;;14.00;6.93;;;;;;;33.53;88.24;101651.34;10421977;28;20056;-72
2023/09/10 12:59:40;;;;;;;13.85;7.75;;;;;;;33.90;85.74;101635.34;10415011;28;20042;-71
2023/09/10 13:04:41;;;;;;;14.30;6.38;;;;;;;33.72;84.14;101623.81;10438766;28;20033;-72
2023/09/10 13:09:41;;;;;;;11.82;6.28;;;;;;;34.01;84.39;101646.88;10432434;28;20064;-70
2023/09/10 13:14:42;;;;;;;18.02;6.93;;;;;;;34.05;81.90;101622.00;10433210;28;20053;-70
2023/09/10 13:19:42;;;;;;;14.25;6.35;;;;;;;34.11;81.53;101632.66;10447574;28;20052;-70
2023/09/10 13:24:43;;;;;;;12.48;6.05;;;;;;;34.31;82.83;101626.66;10440786;28;20038;-67
2023/09/10 13:29:43;;;;;;;14.55;5.80;;;;;;;34.29;83.04;101627.03;10445491;28;20501;-67
2023/09/10 13:34:44;;;;;;;15.00;6.60;;;;;;;34.22;80.64;101607.00;10436776;28;20116;-68
2023/09/10 13:39:44;;;;;;;13.18;6.35;;;;;;;34.06;79.57;101612.19;10441147;28;20049;-69
2023/09/10 13:44:45;;;;;;;15.50;6.05;;;;;;;34.50;80.85;101614.91;10446558;28;20037;-71
2023/09/10 13:49:45;;;;;;;13.45;6.25;;;;;;;34.51;81.03;101619.38;10442682;28;20041;-70
2023/09/10 13:54:46;;;;;;;20.10;5.82;;;;;;;34.36;78.71;101609.94;10441329;28;20040;-68
2023/09/10 13:59:46;;;;;;;21.30;7.25;;;;;;;34.50;77.71;101605.50;10441359;28;20576;-68
2023/09/10 14:04:47;;;;;;;14.80;6.00;;;;;;;34.59;78.72;101608.00;10444994;28;20044;-68
2023/09/10 14:09:47;;;;;;;10.93;5.43;;;;;;;34.15;79.66;101601.25;10444829;28;20033;-67
2023/09/10 14:14:48;;;;;;;14.07;6.35;;;;;;;33.88;78.24;101598.63;10438166;28;20106;-68
2023/09/10 14:19:48;;;;;;;10.13;5.68;;;;;;;33.89;77.88;101591.69;10441910;28;20052;-67
2023/09/10 14:24:49;;;;;;;13.90;5.68;;;;;;;33.83;78.19;101586.75;10428438;28;20037;-70
2023/09/10 14:29:49;;;;;;;20.75;5.47;;;;;;;33.86;77.22;101592.50;10419794;28;20040;-70
2023/09/10 14:34:50;;;;;;;15.48;5.13;;;;;;;33.58;77.98;101585.31;10437770;28;20033;-70
2023/09/10 14:39:51;;;;;;;16.52;5.25;;;;;;;33.16;79.25;101592.31;10441449;28;20036;-69
2023/09/10 14:44:52;;;;;;;22.25;6.32;;;;;;;32.82;80.87;101588.66;10441929;28;20044;-69
2023/09/10 14:49:52;;;;;;;13.68;6.07;;;;;;;32.97;82.83;101590.47;10437437;28;20052;-70
2023/09/10 14:54:52;;;;;;;15.85;5.75;;;;;;;32.53;80.40;101581.78;10439132;28;20045;-70
2023/09/10 14:59:53;;;;;;;13.65;6.07;;;;;;;32.38;85.70;101600.75;10439598;28;20048;-69
2023/09/10 15:04:54;;;;;;;13.55;6.05;;;;;;;32.13;86.78;101594.72;10437062;28;20033;-69
2023/09/10 15:09:54;;;;;;;21.92;7.72;;;;;;;31.94;85.05;101590.75;10418487;28;20056;-66
2023/09/10 15:14:55;;;;;;;15.10;6.07;;;;;;;31.66;84.10;101581.78;10442528;28;20053;-69
2023/09/10 15:19:55;;;;;;;14.93;6.20;;;;;;;31.51;89.14;101589.28;10435881;28;20045;-69
2023/09/10 15:24:56;;;;;;;20.25;6.55;;;;;;;31.32;88.40;101576.75;10441363;28;20044;-70
2023/09/10 15:29:57;;;;;;;12.48;6.57;;;;;;;30.94;86.31;101567.09;10434420;28;20444;-70
2023/09/10 15:34:58;;;;;;;17.35;6.40;;;;;;;30.56;90.44;101580.16;10434124;28;20030;-69
2023/09/10 15:39:58;;;;;;;12.00;5.95;;;;;;;30.26;93.50;101581.91;10440494;28;20084;-69
2023/09/10 15:44:59;;;;;;;12.93;5.47;;;;;;;29.86;93.19;101575.38;10414564;28;20064;-69
2023/09/10 15:50:00;;;;;;;17.23;6.65;;;;;;;29.29;100.00;101585.28;10428739;28;20048;-69
2023/09/10 15:55:03;;;;;;;13.40;6.97;;;;;;;28.84;100.00;101595.81;10435407;28;20049;-69
2023/09/10 16:00:06;;;;;;;13.88;7.85;;;;;;;28.29;100.00;101581.25;10437716;28;20048;-69
2023/09/10 16:05:06;;;;;;;14.60;7.40;;;;;;;27.88;100.00;101580.38;10434857;28;20124;-69
2023/09/10 16:10:07;;;;;;;12.43;6.90;;;;;;;27.63;100.00;101592.88;10435296;28;20089;-69
2023/09/10 16:15:08;;;;;;;12.02;8.43;;;;;;;27.34;100.00;101583.44;10437332;28;20060;-69
2023/09/10 16:20:09;;;;;;;12.30;7.85;;;;;;;27.07;100.00;101582.91;10434770;28;20041;-68
2023/09/10 16:25:10;;;;;;;11.40;7.80;;;;;;;26.89;100.00;101578.63;10437625;28;20036;-69
2023/09/10 16:30:11;;;;;;;10.18;8.15;;;;;;;26.76;100.00;101572.94;10433515;28;20038;-68
2023/09/10 16:35:12;;;;;;;13.00;8.77;;;;;;;26.57;100.00;101570.63;10429652;28;20034;-68
2023/09/10 16:40:12;;;;;;;12.43;7.82;;;;;;;26.30;100.00;101560.72;10422787;28;20314;-68
2023/09/10 16:45:13;;;;;;;12.90;8.88;;;;;;;26.33;100.00;101582.59;10438415;28;20056;-69
2023/09/10 16:50:14;;;;;;;11.32;9.15;;;;;;;26.14;100.00;101571.78;10380692;28;20042;-68
2023/09/10 16:55:14;;;;;;;17.75;10.00;;;;;;;25.96;100.00;101579.59;10404864;28;20132;-68
2023/09/10 17:00:15;;;;;;;15.07;9.55;;;;;;;25.83;100.00;101588.25;10373479;28;20427;-68
2023/09/10 17:05:15;;;;;;;14.70;10.52;;;;;;;25.66;100.00;101577.91;10367609;28;20254;-68
2023/09/10 17:10:16;;;;;;;18.77;9.98;;;;;;;25.49;100.00;101585.28;10370604;28;20097;-67
2023/09/10 17:15:16;;;;;;;14.93;11.40;;;;;;;25.40;100.00;101587.31;10348157;28;20074;-68
2023/09/10 17:20:17;;;;;;;12.80;9.68;;;;;;;25.30;100.00;101580.09;10348110;28;20046;-68
2023/09/10 17:25:17;;;;;;;13.75;9.60;;;;;;;25.20;100.00;101582.38;10346327;28;20041;-68
2023/09/10 17:30:18;;;;;;;13.13;9.40;;;;;;;25.02;100.00;101578.81;10350227;28;20089;-68
2023/09/10 17:35:18;;;;;;;11.32;9.25;;;;;;;24.85;100.00;101588.16;10350238;28;20042;-68
2023/09/10 17:40:19;;;;;;;14.50;10.70;;;;;;;24.68;100.00;101584.19;10350985;28;20096;-68
2023/09/10 17:45:20;;;;;;;13.82;10.50;;;;;;;24.44;100.00;101569.78;10351134;28;20046;-67
2023/09/10 17:50:21;;;;;;;13.98;9.68;;;;;;;24.30;100.00;101590.44;10349125;28;20116;-67
2023/09/10 17:55:21;;;;;;;15.27;10.32;;;;;;;24.07;100.00;101597.41;10348890;28;20104;-67
2023/09/10 18:00:22;;;;;;;16.77;10.13;;;;;;;23.89;100.00;101594.53;10356213;28;20077;-68
2023/09/10 18:05:23;;;;;;;12.60;10.32;;;;;;;23.67;100.00;101591.81;10351932;28;20038;-67
2023/09/10 18:10:23;;;;;;;13.90;9.93;;;;;;;23.49;100.00;101600.19;10359748;28;20117;-67
2023/09/10 18:15:24;;;;;;;19.13;10.80;;;;;;;23.32;100.00;101600.13;10365369;28;20041;-67
2023/09/10 18:20:24;;;;;;;15.80;11.30;;;;;;;23.16;100.00;101602.50;10358055;28;20038;-67
2023/09/10 18:25:24;;;;;;;15.75;11.48;;;;;;;23.01;100.00;101600.06;10352628;28;20037;-67
2023/09/10 18:30:26;;;;;;;19.10;11.57;;;;;;;22.88;100.00;101613.03;10355966;28;20034;-67
2023/09/10 18:35:27;;;;;;;18.13;11.45;;;;;;;22.76;100.00;101617.28;10354961;28;20034;-67
2023/09/10 18:40:27;;;;;;;17.40;12.80;;;;;;;22.66;100.00;101616.69;10357602;28;20041;-66
2023/09/10 18:45:29;;;;;;;14.00;11.20;;;;;;;22.59;100.00;101619.94;10363125;28;20054;-67
2023/09/10 18:50:29;;;;;;;17.20;12.00;;;;;;;22.49;100.00;101617.38;10353649;28;20042;-69
2023/09/10 18:55:30;;;;;;;15.20;13.13;;;;;;;22.40;100.00;101616.47;10356726;28;20486;-69
2023/09/10 19:00:30;;;;;;;18.08;12.23;;;;;;;22.24;100.00;101611.25;10354556;28;20060;-70
2023/09/10 19:05:31;;;;;;;18.48;14.35;;;;;;;22.23;100.00;101612.38;10357593;28;20042;-69
2023/09/10 19:10:31;;;;;;;16.25;13.00;;;;;;;22.14;100.00;101603.03;10357836;28;20034;-67
2023/09/10 19:15:37;;;;;;;18.40;13.63;;;;;;;22.08;100.00;101601.47;10354958;28;20046;-68
2023/09/10 19:20:39;;;;;;;16.60;14.15;;;;;;;22.01;100.00;101601.06;10356334;28;20121;-68
2023/09/10 19:25:39;;;;;;;21.55;14.90;;;;;;;21.93;100.00;101605.44;10363384;28;20101;-66
2023/09/10 19:30:40;;;;;;;18.52;13.80;;;;;;;21.86;100.00;101608.66;10354714;28;20061;-66
2023/09/10 19:35:40;;;;;;;18.67;15.35;;;;;;;21.84;100.00;101598.91;10356611;28;20029;-67
2023/09/10 19:40:40;;;;;;;18.08;15.13;;;;;;;21.82;100.00;101599.22;10354544;28;20149;-68
2023/09/10 19:45:41;;;;;;;18.50;14.75;;;;;;;21.81;100.00;101605.13;10352472;28;20046;-67
2023/09/10 19:50:41;;;;;;;21.00;15.80;;;;;;;21.77;100.00;101599.34;10351909;28;20046;-68
2023/09/10 19:55:42;;;;;;;19.35;14.43;;;;;;;21.70;100.00;101601.72;10353937;28;20122;-68
2023/09/10 20:00:44;;;;;;;21.52;15.18;;;;;;;21.62;100.00;101599.66;10351452;28;20044;-69
2023/09/10 20:05:45;;;;;;;19.08;14.45;;;;;;;21.52;100.00;101600.72;10372078;28;20073;-69
2023/09/10 20:10:46;;;;;;;20.60;15.05;;;;;;;21.41;100.00;101599.19;10367088;28;20404;-68
2023/09/10 20:15:46;;;;;;;23.17;16.17;;;;;;;21.30;100.00;101606.97;10369152;28;20064;-68
2023/09/10 20:20:47;;;;;;;26.08;16.23;;;;;;;21.19;100.00;101602.69;10352677;28;20046;-68
2023/09/10 20:25:49;;;;;;;21.70;16.30;;;;;;;21.08;100.00;101608.47;10349861;28;20049;-68
2023/09/10 20:30:50;;;;;;;18.98;16.25;;;;;;;21.01;100.00;101602.47;10351006;28;20096;-68
2023/09/10 20:35:50;;;;;;;24.90;16.75;;;;;;;20.90;100.00;101601.81;10358644;28;20034;-67
2023/09/10 20:40:51;;;;;;;27.42;17.00;;;;;;;20.83;100.00;101601.38;10348646;28;20530;-68
2023/09/10 20:45:54;;;;;;;24.25;16.50;;;;;;;20.76;100.00;101590.56;10361882;28;20041;-68
2023/09/10 20:50:56;;;;;;;23.17;17.80;;;;;;;20.70;100.00;101593.78;10356983;28;20105;-68
2023/09/10 20:55:56;;;;;;;24.40;17.48;;;;;;;20.63;100.00;101593.31;10363333;28;20030;-68
2023/09/10 21:00:58;;;;;;;27.58;18.77;;;;;;;20.55;100.00;101594.84;10371038;28;20264;-68
2023/09/10 21:05:59;;;;;;;28.15;17.70;;;;;;;20.47;100.00;101578.75;10367545;28;20069;-68
2023/09/10 21:10:59;;;;;;;27.58;19.13;;;;;;;20.45;100.00;101589.41;10361942;28;20037;-67
2023/09/10 21:15:59;;;;;;;22.00;17.70;;;;;;;20.15;100.00;101549.56;10373859;28;20061;-68
2023/09/10 21:21:00;;;;;;;25.13;19.70;;;;;;;20.32;100.00;101574.22;10361561;28;20047;-67
2023/09/10 21:26:01;;;;;;;25.95;19.92;;;;;;;20.19;100.00;101575.78;10371890;28;20057;-67
2023/09/10 21:31:01;;;;;;;30.63;19.98;;;;;;;20.14;100.00;101573.91;10363322;28;20072;-67
2023/09/10 21:36:02;;;;;;;25.42;20.75;;;;;;;20.09;100.00;101567.56;10371429;28;20034;-67
2023/09/10 21:41:02;;;;;;;28.05;20.42;;;;;;;20.04;100.00;101554.50;10357487;28;20056;-66
2023/09/10 21:46:06;;;;;;;28.42;21.10;;;;;;;19.99;100.00;101565.75;10372928;28;20046;-67
2023/09/10 21:51:06;;;;;;;28.80;21.17;;;;;;;19.94;100.00;101557.44;10368352;28;20969;-67
2023/09/10 21:56:07;;;;;;;27.17;20.10;;;;;;;19.89;100.00;101555.53;10373679;28;20083;-68
2023/09/10 22:01:08;;;;;;;35.20;23.23;;;;;;;19.84;100.00;101552.81;10370599;28;20065;-68
2023/09/10 22:06:09;;;;;;;26.92;21.67;;;;;;;19.81;100.00;101550.63;10375880;28;20049;-67
2023/09/10 22:11:11;;;;;;;32.20;22.70;;;;;;;19.76;100.00;101567.44;10371343;28;20048;-68
2023/09/10 22:16:12;;;;;;;30.38;21.73;;;;;;;19.70;100.00;101540.69;10365879;28;20042;-68
2023/09/10 22:21:12;;;;;;;33.92;23.38;;;;;;;19.65;100.00;101544.38;10402325;28;20041;-67
2023/09/10 22:26:13;;;;;;;33.92;24.88;;;;;;;19.61;100.00;101543.31;10424773;28;20448;-68